Главная страница
METAR-TAF:

METAR-TAF

Аэропорты :

Орхус, Дания

широта: 56-18N, долгота: 010-37E, высота над уровнем моря: 23 м

Текущие метеонаблюдения

Эта сводка был подготовлена 11 минут назад, в 22:50 UTC
Ветер 4 Узел от юго-западный, изменяющийся между юго-юго-восточный и западный
Температура 10°C
Влажность 82%
Давление 1012 hPa
Видимость 10 км и более

METAR: EKAH 232250Z AUTO 23004KT 160V260 9999NDV NCD 10/07 Q1012

Время: 01:01 (23:01 UTC)

Прогноз

Эта сводка был подготовлена 6 часа и 0 минут назад, в 17:01 UTC
Прогноз действительный с 23-го 18 UTC до 24-го 18 UTC
Ветер 8 Узел от юго-западный
Видимость 10 км и более
Отдельные облака на высоте 2000 фута
временами
С 24-го 09 UTC до 24-го 12 UTC
Видимость: 4000 м
Рассеянная облачность на высоте 1000 фута
дождь
временами
С 24-го 12 UTC до 24-го 18 UTC
Видимость: 4500 м
Рассеянная облачность на высоте 1200 фута
небольшой дождь

TAF: EKAH 231701Z 2318/2418 22008KT 9999 SCT020 TEMPO 2409/2412 4000 RA BKN010 TEMPO 2412/2418 4500 -RA BKN012

Метеонаблюдения и прогнозы для более 4000 аэропортов (сводки METAR и TAF).

Имеющиеся станции представлены на карте желтыми и красными точками.

Чтобы увидеть название станции, наведите на нее мышь.

Затем щелкните, чтобы увидеть метеонаблюдения и метеопрогнозы.

Управление картой: чтобы увеличить масштаб, щелкните зеленые кнопки с черным крестиком; чтобы уменьшить масштаб, щелкните зеленую кнопку с тире; для просмотра соседних карт щелкайте зеленые стрелки.


METAR-TAF: